• Join FlightAware (Why Join?)
  • Login
  • US Flag 
12:52PM EDT


 

Airport Tracker/Info


-or-


 

Live Flight TrackerFlight Track Log ✈ EJA829P ✈ 19-Jul-2013 ✈ KPWK - KMGN

Flight Track Log - Related Links

Times and Time Zones

All times are in EDT time to prevent confusion due to time zone crossing. See the EJA829P flight status page for this flight to view local times or setup timezone preferences in your user account.

Time Position Orientation Groundspeed Altitude Reporting Facility
EDT Latitude Longitude Course Direction KTS MPH feet Rate Location/Type
11:53AM 42.0953 -87.8803 32° Northeast 184 212 1,900  Level Chicago Center
11:54AM 42.1378 -87.8275 43° Northeast 227 261 2,800 960 Climbing Chicago Center
11:55AM 42.1978 -87.8183 North 219 252 3,900 540 Climbing Chicago Center
11:56AM 42.2389 -87.8639 321° Northwest 204 235 4,000 480 Climbing Chicago Center
11:57AM 42.2778 -87.9092 319° Northwest 189 217 4,900 1,740 Climbing Chicago Center
11:58AM 42.3356 -87.9689 323° Northwest 247 284 7,600 3,180 Climbing Chicago Center
11:59AM 42.7669 -87.3434 32° Northeast  Level Estimated
11:59AM 42.4269 -87.9950 348° North 284 327 11,500  Level Chicago Center
12:00PM 42.5114 -87.9867 North 305 351 14,200 2,460 Climbing Chicago Center
12:01PM 42.6014 -87.9683 North 325 374 16,600 2,280 Climbing Chicago Center
12:02PM 42.6817 -87.8919 35° Northeast 350 403 19,000 2,100 Climbing Chicago Center
12:03PM 42.7644 -87.8097 36° Northeast 365 420 21,000 1,920 Climbing Chicago Center
12:04PM 42.8636 -87.7086 37° Northeast 380 437 23,000 960 Climbing Chicago Center
12:06PM 42.9544 -87.6164 37° Northeast 404 465 23,000  Level Chicago Center
12:07PM 43.0511 -87.5150 37° Northeast 432 497 23,000  Level Chicago Center
12:08PM 43.1458 -87.4158 37° Northeast 433 498 23,000  Level Chicago Center
12:09PM 43.2478 -87.3122 37° Northeast 437 503 23,000  Level Chicago Center
12:10PM 43.3433 -87.2117 37° Northeast 433 498 23,000  Level Chicago Center
12:11PM 43.4356 -87.1142 38° Northeast 422 486 23,000  Level Chicago Center
12:12PM 43.5297 -87.0150 37° Northeast 425 489 23,000  Level Chicago Center
12:13PM 43.6244 -86.9136 38° Northeast 429 494 23,000  Level Chicago Center
12:14PM 43.7392 -86.7917 38° Northeast 433 498 23,000 -240 Level Chicago Center
12:15PM 43.8397 -86.7008 33° Northeast 431 496 22,600 -540 Descending Chicago Center
12:16PM 43.9197 -86.6422 28° Northeast 418 481 22,000 -600 Descending Minneapolis Center
12:17PM 44.0175 -86.5614 31° Northeast 412 474 21,400 -840 Descending Minneapolis Center
12:18PM 44.1061 -86.4581 40° Northeast 414 476 20,200 -1,440 Descending Minneapolis Center
12:19PM 44.2311 -86.3158 39° Northeast 404 465 18,500 -1,500 Descending Minneapolis Center
12:20PM 44.3156 -86.2192 39° Northeast 397 457 17,100 -1,260 Descending Minneapolis Center
12:21PM 44.4003 -86.1228 39° Northeast 395 455 15,900 -1,020 Descending Minneapolis Center
12:22PM 44.4819 -86.0275 40° Northeast 388 447 15,000 -1,020 Descending Minneapolis Center
12:23PM 44.5636 -85.9317 40° Northeast 387 445 13,900 -1,080 Descending Minneapolis Center
12:24PM 44.6589 -85.8242 39° Northeast 374 430 12,800 -1,020 Descending Minneapolis Center
12:25PM 44.7381 -85.7306 40° Northeast 377 434 11,800 -900 Descending Minneapolis Center
12:26PM 44.8003 -85.6581 40° Northeast 371 427 11,000 -900 Descending Minneapolis Center
12:27PM 44.8875 -85.5556 40° Northeast 348 400 9,800 -1,140 Descending Minneapolis Center
12:29PM 44.9811 -85.4458 40° Northeast 319 367 8,400 -1,200 Descending Minneapolis Center
12:30PM 45.0481 -85.3664 40° Northeast 317 365 7,400 -900 Descending Minneapolis Center
12:31PM 45.1114 -85.2911 40° Northeast 310 357 6,400 -1,260 Descending Minneapolis Center
12:32PM 45.1792 -85.2117 40° Northeast 284 327 4,600 -1,260 Descending Minneapolis Center
12:33PM 45.2219 -85.1603 40° Northeast 269 310 3,900 -780 Descending Minneapolis Center
12:34PM 45.2864 -85.0833 40° Northeast 259 298 3,100 -540 Descending Minneapolis Center
12:35PM 45.3436 -85.0139 40° Northeast 241 277 2,900 -300 Descending Minneapolis Center
12:36PM 45.3819 -84.9458 51° Northeast 229 264 2,500 -420 Descending Minneapolis Center
12:38PM 45.4167 -84.9000 46° Northeast  Level FlightAware Approximate